sensor_id;sensor_type;location;lat;lon;timestamp;temperature;humidity
13589;DHT22;6865;52.552;13.434;2022-11-02T00:02:09;11.00;99.90
13589;DHT22;6865;52.552;13.434;2022-11-02T00:04:36;11.00;99.90
13589;DHT22;6865;52.552;13.434;2022-11-02T00:07:02;11.00;99.90
13589;DHT22;6865;52.552;13.434;2022-11-02T00:09:29;10.90;99.90
13589;DHT22;6865;52.552;13.434;2022-11-02T00:11:55;10.90;99.90
13589;DHT22;6865;52.552;13.434;2022-11-02T00:14:22;10.80;99.90
13589;DHT22;6865;52.552;13.434;2022-11-02T00:16:49;10.80;99.90
13589;DHT22;6865;52.552;13.434;2022-11-02T00:19:16;10.80;99.90
13589;DHT22;6865;52.552;13.434;2022-11-02T00:21:42;10.80;99.90
13589;DHT22;6865;52.552;13.434;2022-11-02T00:24:10;10.70;99.90
13589;DHT22;6865;52.552;13.434;2022-11-02T00:26:37;10.70;99.90
13589;DHT22;6865;52.552;13.434;2022-11-02T00:29:04;10.70;99.90
13589;DHT22;6865;52.552;13.434;2022-11-02T00:31:31;10.60;99.90
13589;DHT22;6865;52.552;13.434;2022-11-02T00:33:58;10.70;99.90
13589;DHT22;6865;52.552;13.434;2022-11-02T00:36:24;10.60;99.90
13589;DHT22;6865;52.552;13.434;2022-11-02T00:38:51;10.60;99.90
13589;DHT22;6865;52.552;13.434;2022-11-02T00:41:19;10.60;99.90
13589;DHT22;6865;52.552;13.434;2022-11-02T00:43:45;10.50;99.90
13589;DHT22;6865;52.552;13.434;2022-11-02T00:46:12;10.50;99.90
13589;DHT22;6865;52.552;13.434;2022-11-02T00:48:38;10.50;99.90
13589;DHT22;6865;52.552;13.434;2022-11-02T00:51:05;10.50;99.90
13589;DHT22;6865;52.552;13.434;2022-11-02T00:53:32;10.50;99.90
13589;DHT22;6865;52.552;13.434;2022-11-02T00:55:58;10.50;99.90
13589;DHT22;6865;52.552;13.434;2022-11-02T00:58:25;10.50;99.90
13589;DHT22;6865;52.552;13.434;2022-11-02T01:00:51;10.50;99.90
13589;DHT22;6865;52.552;13.434;2022-11-02T01:03:18;10.50;99.90
13589;DHT22;6865;52.552;13.434;2022-11-02T01:05:45;10.40;99.90
13589;DHT22;6865;52.552;13.434;2022-11-02T01:08:12;10.40;99.90
13589;DHT22;6865;52.552;13.434;2022-11-02T01:10:38;10.40;99.90
13589;DHT22;6865;52.552;13.434;2022-11-02T01:13:11;10.40;99.90
13589;DHT22;6865;52.552;13.434;2022-11-02T01:15:37;10.40;99.90
13589;DHT22;6865;52.552;13.434;2022-11-02T01:18:04;10.40;99.90
13589;DHT22;6865;52.552;13.434;2022-11-02T01:20:31;10.40;99.90
13589;DHT22;6865;52.552;13.434;2022-11-02T01:22:58;10.40;99.90
13589;DHT22;6865;52.552;13.434;2022-11-02T01:25:24;10.40;99.90
13589;DHT22;6865;52.552;13.434;2022-11-02T01:27:51;10.30;99.90
13589;DHT22;6865;52.552;13.434;2022-11-02T01:30:18;10.30;99.90
13589;DHT22;6865;52.552;13.434;2022-11-02T01:32:44;10.30;99.90
13589;DHT22;6865;52.552;13.434;2022-11-02T01:35:11;10.30;99.90
13589;DHT22;6865;52.552;13.434;2022-11-02T01:37:37;10.30;99.90
13589;DHT22;6865;52.552;13.434;2022-11-02T01:40:04;10.30;99.90
13589;DHT22;6865;52.552;13.434;2022-11-02T01:42:31;10.20;99.90
13589;DHT22;6865;52.552;13.434;2022-11-02T01:44:57;10.10;99.90
13589;DHT22;6865;52.552;13.434;2022-11-02T01:47:31;10.20;99.90
13589;DHT22;6865;52.552;13.434;2022-11-02T01:50:11;10.20;99.90
13589;DHT22;6865;52.552;13.434;2022-11-02T01:52:38;10.20;99.90
13589;DHT22;6865;52.552;13.434;2022-11-02T01:55:21;10.20;99.90
13589;DHT22;6865;52.552;13.434;2022-11-02T01:57:59;10.20;99.90
13589;DHT22;6865;52.552;13.434;2022-11-02T02:00:27;10.00;99.90
13589;DHT22;6865;52.552;13.434;2022-11-02T02:03:08;10.20;99.90
13589;DHT22;6865;52.552;13.434;2022-11-02T02:05:42;10.20;99.90
13589;DHT22;6865;52.552;13.434;2022-11-02T02:08:11;10.20;99.90
13589;DHT22;6865;52.552;13.434;2022-11-02T02:10:38;10.20;99.90
13589;DHT22;6865;52.552;13.434;2022-11-02T02:13:06;10.10;99.90
13589;DHT22;6865;52.552;13.434;2022-11-02T02:15:54;10.10;99.90
13589;DHT22;6865;52.552;13.434;2022-11-02T02:18:39;10.10;99.90
13589;DHT22;6865;52.552;13.434;2022-11-02T02:21:36;9.70;99.90
13589;DHT22;6865;52.552;13.434;2022-11-02T02:26:53;10.10;99.90
13589;DHT22;6865;52.552;13.434;2022-11-02T02:29:30;10.00;99.90
13589;DHT22;6865;52.552;13.434;2022-11-02T02:32:12;10.00;99.90
13589;DHT22;6865;52.552;13.434;2022-11-02T02:34:53;10.00;99.90
13589;DHT22;6865;52.552;13.434;2022-11-02T02:37:26;10.00;99.90
13589;DHT22;6865;52.552;13.434;2022-11-02T02:40:10;10.00;99.90
13589;DHT22;6865;52.552;13.434;2022-11-02T02:42:47;9.90;99.90
13589;DHT22;6865;52.552;13.434;2022-11-02T02:45:19;9.90;99.90
13589;DHT22;6865;52.552;13.434;2022-11-02T02:47:53;9.90;99.90
13589;DHT22;6865;52.552;13.434;2022-11-02T02:50:24;9.90;99.90
13589;DHT22;6865;52.552;13.434;2022-11-02T02:52:52;9.90;99.90
13589;DHT22;6865;52.552;13.434;2022-11-02T02:55:23;9.80;99.90
13589;DHT22;6865;52.552;13.434;2022-11-02T02:57:53;9.90;99.90
13589;DHT22;6865;52.552;13.434;2022-11-02T03:00:21;9.90;99.90
13589;DHT22;6865;52.552;13.434;2022-11-02T03:02:48;9.90;99.90
13589;DHT22;6865;52.552;13.434;2022-11-02T03:05:30;9.90;99.90
13589;DHT22;6865;52.552;13.434;2022-11-02T03:08:01;9.80;99.90
13589;DHT22;6865;52.552;13.434;2022-11-02T03:10:35;9.80;99.90
13589;DHT22;6865;52.552;13.434;2022-11-02T03:13:32;9.80;99.90
13589;DHT22;6865;52.552;13.434;2022-11-02T03:16:16;9.70;99.90
13589;DHT22;6865;52.552;13.434;2022-11-02T03:18:58;9.70;99.90
13589;DHT22;6865;52.552;13.434;2022-11-02T03:21:36;9.70;99.90
13589;DHT22;6865;52.552;13.434;2022-11-02T03:24:14;9.80;99.90
13589;DHT22;6865;52.552;13.434;2022-11-02T03:30:02;9.80;99.90
13589;DHT22;6865;52.552;13.434;2022-11-02T03:32:43;9.80;99.90
13589;DHT22;6865;52.552;13.434;2022-11-02T03:35:20;9.70;99.90
13589;DHT22;6865;52.552;13.434;2022-11-02T03:37:55;9.80;99.90
13589;DHT22;6865;52.552;13.434;2022-11-02T03:40:28;9.80;99.90
13589;DHT22;6865;52.552;13.434;2022-11-02T03:42:56;9.80;99.90
13589;DHT22;6865;52.552;13.434;2022-11-02T03:45:26;9.80;99.90
13589;DHT22;6865;52.552;13.434;2022-11-02T03:48:00;9.70;99.90
13589;DHT22;6865;52.552;13.434;2022-11-02T03:50:31;9.60;99.90
13589;DHT22;6865;52.552;13.434;2022-11-02T03:53:08;9.80;99.90
13589;DHT22;6865;52.552;13.434;2022-11-02T03:55:40;9.70;99.90
13589;DHT22;6865;52.552;13.434;2022-11-02T03:58:11;11.10;99.90
13589;DHT22;6865;52.552;13.434;2022-11-02T04:00:50;9.60;99.90
13589;DHT22;6865;52.552;13.434;2022-11-02T04:03:19;9.60;99.90
13589;DHT22;6865;52.552;13.434;2022-11-02T04:05:46;9.50;99.90
13589;DHT22;6865;52.552;13.434;2022-11-02T04:08:18;9.50;99.90
13589;DHT22;6865;52.552;13.434;2022-11-02T04:10:51;9.50;99.90
13589;DHT22;6865;52.552;13.434;2022-11-02T04:13:37;9.40;99.90
13589;DHT22;6865;52.552;13.434;2022-11-02T04:16:22;9.40;99.90
13589;DHT22;6865;52.552;13.434;2022-11-02T04:18:53;9.40;99.90
13589;DHT22;6865;52.552;13.434;2022-11-02T04:21:39;9.50;99.90
13589;DHT22;6865;52.552;13.434;2022-11-02T04:24:07;9.40;99.90
13589;DHT22;6865;52.552;13.434;2022-11-02T04:26:52;9.40;99.90
13589;DHT22;6865;52.552;13.434;2022-11-02T04:29:19;9.40;99.90
13589;DHT22;6865;52.552;13.434;2022-11-02T04:31:45;9.30;99.90
13589;DHT22;6865;52.552;13.434;2022-11-02T04:34:12;9.40;99.90
13589;DHT22;6865;52.552;13.434;2022-11-02T04:36:38;9.40;99.90
13589;DHT22;6865;52.552;13.434;2022-11-02T04:39:06;9.40;99.90
13589;DHT22;6865;52.552;13.434;2022-11-02T04:41:32;9.50;99.90
13589;DHT22;6865;52.552;13.434;2022-11-02T04:44:10;9.50;99.90
13589;DHT22;6865;52.552;13.434;2022-11-02T04:46:38;9.40;99.90
13589;DHT22;6865;52.552;13.434;2022-11-02T04:49:05;9.40;99.90
13589;DHT22;6865;52.552;13.434;2022-11-02T04:51:32;9.40;99.90
13589;DHT22;6865;52.552;13.434;2022-11-02T04:53:59;9.40;99.90
13589;DHT22;6865;52.552;13.434;2022-11-02T04:56:27;9.30;99.90
13589;DHT22;6865;52.552;13.434;2022-11-02T04:58:58;9.20;99.90
13589;DHT22;6865;52.552;13.434;2022-11-02T05:01:27;8.80;99.90
13589;DHT22;6865;52.552;13.434;2022-11-02T05:03:55;9.20;99.90
13589;DHT22;6865;52.552;13.434;2022-11-02T05:06:23;8.30;99.90
13589;DHT22;6865;52.552;13.434;2022-11-02T05:08:50;9.20;99.90
13589;DHT22;6865;52.552;13.434;2022-11-02T05:11:17;9.10;99.90
13589;DHT22;6865;52.552;13.434;2022-11-02T05:13:44;9.20;99.90
13589;DHT22;6865;52.552;13.434;2022-11-02T05:16:12;9.20;99.90
13589;DHT22;6865;52.552;13.434;2022-11-02T05:18:39;9.20;99.90
13589;DHT22;6865;52.552;13.434;2022-11-02T05:21:08;9.20;99.90
13589;DHT22;6865;52.552;13.434;2022-11-02T05:23:35;9.10;99.90
13589;DHT22;6865;52.552;13.434;2022-11-02T05:26:05;9.00;99.90
13589;DHT22;6865;52.552;13.434;2022-11-02T05:28:32;9.10;99.90
13589;DHT22;6865;52.552;13.434;2022-11-02T05:31:00;9.10;99.90
13589;DHT22;6865;52.552;13.434;2022-11-02T05:33:30;9.10;99.90
13589;DHT22;6865;52.552;13.434;2022-11-02T05:35:58;9.20;99.90
13589;DHT22;6865;52.552;13.434;2022-11-02T05:38:26;9.20;99.90
13589;DHT22;6865;52.552;13.434;2022-11-02T05:40:54;9.10;99.90
13589;DHT22;6865;52.552;13.434;2022-11-02T05:43:21;9.10;99.90
13589;DHT22;6865;52.552;13.434;2022-11-02T05:45:53;9.20;99.90
13589;DHT22;6865;52.552;13.434;2022-11-02T05:48:20;9.20;99.90
13589;DHT22;6865;52.552;13.434;2022-11-02T05:50:48;9.20;99.90
13589;DHT22;6865;52.552;13.434;2022-11-02T05:53:15;9.20;99.90
13589;DHT22;6865;52.552;13.434;2022-11-02T05:55:42;9.20;99.90
13589;DHT22;6865;52.552;13.434;2022-11-02T05:58:08;9.20;99.90
13589;DHT22;6865;52.552;13.434;2022-11-02T06:00:35;9.30;99.90
13589;DHT22;6865;52.552;13.434;2022-11-02T06:03:01;9.30;99.90
13589;DHT22;6865;52.552;13.434;2022-11-02T06:05:28;9.20;99.90
13589;DHT22;6865;52.552;13.434;2022-11-02T06:07:59;9.20;99.90
13589;DHT22;6865;52.552;13.434;2022-11-02T06:10:30;9.10;99.90
13589;DHT22;6865;52.552;13.434;2022-11-02T06:12:58;9.10;99.90
13589;DHT22;6865;52.552;13.434;2022-11-02T06:15:26;9.10;99.90
13589;DHT22;6865;52.552;13.434;2022-11-02T06:17:53;9.10;99.90
13589;DHT22;6865;52.552;13.434;2022-11-02T06:20:20;9.20;99.90
13589;DHT22;6865;52.552;13.434;2022-11-02T06:22:47;9.20;99.90
13589;DHT22;6865;52.552;13.434;2022-11-02T06:25:13;9.10;99.90
13589;DHT22;6865;52.552;13.434;2022-11-02T06:27:40;9.10;99.90
13589;DHT22;6865;52.552;13.434;2022-11-02T06:30:11;9.10;99.90
13589;DHT22;6865;52.552;13.434;2022-11-02T06:32:38;9.10;99.90
13589;DHT22;6865;52.552;13.434;2022-11-02T06:35:05;9.10;99.90
13589;DHT22;6865;52.552;13.434;2022-11-02T06:37:32;9.20;99.90
13589;DHT22;6865;52.552;13.434;2022-11-02T06:39:59;9.10;99.90
13589;DHT22;6865;52.552;13.434;2022-11-02T06:42:26;9.10;99.90
13589;DHT22;6865;52.552;13.434;2022-11-02T06:44:53;9.10;99.90
13589;DHT22;6865;52.552;13.434;2022-11-02T06:47:19;9.10;99.90
13589;DHT22;6865;52.552;13.434;2022-11-02T06:49:46;9.10;99.90
13589;DHT22;6865;52.552;13.434;2022-11-02T06:52:12;9.20;99.90
13589;DHT22;6865;52.552;13.434;2022-11-02T06:54:39;9.20;99.90
13589;DHT22;6865;52.552;13.434;2022-11-02T06:57:05;8.90;99.90
13589;DHT22;6865;52.552;13.434;2022-11-02T06:59:32;9.20;99.90
13589;DHT22;6865;52.552;13.434;2022-11-02T07:01:59;9.20;99.90
13589;DHT22;6865;52.552;13.434;2022-11-02T07:04:25;9.30;99.90
13589;DHT22;6865;52.552;13.434;2022-11-02T07:06:52;9.30;99.90
13589;DHT22;6865;52.552;13.434;2022-11-02T07:09:19;9.40;99.90
13589;DHT22;6865;52.552;13.434;2022-11-02T07:11:45;9.40;99.90
13589;DHT22;6865;52.552;13.434;2022-11-02T07:14:12;9.40;99.90
13589;DHT22;6865;52.552;13.434;2022-11-02T07:16:38;9.50;99.90
13589;DHT22;6865;52.552;13.434;2022-11-02T07:19:05;9.40;99.90
13589;DHT22;6865;52.552;13.434;2022-11-02T07:21:31;9.50;99.90
13589;DHT22;6865;52.552;13.434;2022-11-02T07:23:58;9.50;99.90
13589;DHT22;6865;52.552;13.434;2022-11-02T07:26:25;9.60;99.90
13589;DHT22;6865;52.552;13.434;2022-11-02T07:28:52;9.60;99.90
13589;DHT22;6865;52.552;13.434;2022-11-02T07:31:24;9.70;99.90
13589;DHT22;6865;52.552;13.434;2022-11-02T07:33:51;9.80;99.90
13589;DHT22;6865;52.552;13.434;2022-11-02T07:36:17;9.90;99.90
13589;DHT22;6865;52.552;13.434;2022-11-02T07:38:44;10.00;99.90
13589;DHT22;6865;52.552;13.434;2022-11-02T07:41:10;10.00;99.90
13589;DHT22;6865;52.552;13.434;2022-11-02T07:43:37;10.10;99.90
13589;DHT22;6865;52.552;13.434;2022-11-02T07:46:09;10.20;99.90
13589;DHT22;6865;52.552;13.434;2022-11-02T07:48:36;10.30;99.90
13589;DHT22;6865;52.552;13.434;2022-11-02T07:51:03;10.40;99.90
13589;DHT22;6865;52.552;13.434;2022-11-02T07:53:31;10.50;99.90
13589;DHT22;6865;52.552;13.434;2022-11-02T07:55:59;10.60;99.90
13589;DHT22;6865;52.552;13.434;2022-11-02T07:58:26;10.80;99.90
13589;DHT22;6865;52.552;13.434;2022-11-02T08:00:52;10.90;99.90
13589;DHT22;6865;52.552;13.434;2022-11-02T08:03:26;11.10;99.90
13589;DHT22;6865;52.552;13.434;2022-11-02T08:05:53;11.20;99.90
13589;DHT22;6865;52.552;13.434;2022-11-02T08:08:21;11.30;99.90
13589;DHT22;6865;52.552;13.434;2022-11-02T08:10:50;11.40;99.90
13589;DHT22;6865;52.552;13.434;2022-11-02T08:13:22;11.50;99.90
13589;DHT22;6865;52.552;13.434;2022-11-02T08:15:52;11.50;99.90
13589;DHT22;6865;52.552;13.434;2022-11-02T08:18:21;11.60;99.90
13589;DHT22;6865;52.552;13.434;2022-11-02T08:20:49;11.50;99.90
13589;DHT22;6865;52.552;13.434;2022-11-02T08:23:16;11.70;99.90
13589;DHT22;6865;52.552;13.434;2022-11-02T08:25:45;11.70;99.90
13589;DHT22;6865;52.552;13.434;2022-11-02T08:28:18;11.80;99.90
13589;DHT22;6865;52.552;13.434;2022-11-02T08:30:45;10.30;99.90
13589;DHT22;6865;52.552;13.434;2022-11-02T08:33:14;11.90;99.90
13589;DHT22;6865;52.552;13.434;2022-11-02T08:35:42;12.00;99.90
13589;DHT22;6865;52.552;13.434;2022-11-02T08:38:09;12.00;99.90
13589;DHT22;6865;52.552;13.434;2022-11-02T08:40:36;12.10;99.90
13589;DHT22;6865;52.552;13.434;2022-11-02T08:43:08;12.10;99.90
13589;DHT22;6865;52.552;13.434;2022-11-02T08:45:38;12.10;99.90
13589;DHT22;6865;52.552;13.434;2022-11-02T08:48:25;12.10;99.90
13589;DHT22;6865;52.552;13.434;2022-11-02T08:50:52;12.00;99.90
13589;DHT22;6865;52.552;13.434;2022-11-02T08:53:18;12.10;99.90
13589;DHT22;6865;52.552;13.434;2022-11-02T08:55:45;12.00;99.90
13589;DHT22;6865;52.552;13.434;2022-11-02T08:58:12;12.00;99.90
13589;DHT22;6865;52.552;13.434;2022-11-02T09:00:38;12.00;99.90
13589;DHT22;6865;52.552;13.434;2022-11-02T09:03:10;12.00;99.90
13589;DHT22;6865;52.552;13.434;2022-11-02T09:05:39;12.00;99.90
13589;DHT22;6865;52.552;13.434;2022-11-02T09:08:10;11.90;99.90
13589;DHT22;6865;52.552;13.434;2022-11-02T09:10:37;11.80;99.90
13589;DHT22;6865;52.552;13.434;2022-11-02T09:13:06;11.70;99.90
13589;DHT22;6865;52.552;13.434;2022-11-02T09:15:35;11.70;99.90
13589;DHT22;6865;52.552;13.434;2022-11-02T09:18:03;11.70;99.90
13589;DHT22;6865;52.552;13.434;2022-11-02T09:20:31;11.80;99.90
13589;DHT22;6865;52.552;13.434;2022-11-02T09:22:57;11.90;99.90
13589;DHT22;6865;52.552;13.434;2022-11-02T09:25:24;12.00;99.90
13589;DHT22;6865;52.552;13.434;2022-11-02T09:27:52;12.10;99.90
13589;DHT22;6865;52.552;13.434;2022-11-02T09:30:22;12.20;99.90
13589;DHT22;6865;52.552;13.434;2022-11-02T09:33:00;12.30;99.90
13589;DHT22;6865;52.552;13.434;2022-11-02T09:35:29;12.30;99.90
13589;DHT22;6865;52.552;13.434;2022-11-02T09:37:56;12.50;99.90
13589;DHT22;6865;52.552;13.434;2022-11-02T09:40:35;12.50;99.90
13589;DHT22;6865;52.552;13.434;2022-11-02T09:43:16;12.60;99.90
13589;DHT22;6865;52.552;13.434;2022-11-02T09:46:16;12.80;99.90
13589;DHT22;6865;52.552;13.434;2022-11-02T09:48:56;12.80;99.90
13589;DHT22;6865;52.552;13.434;2022-11-02T09:51:27;13.00;99.90
13589;DHT22;6865;52.552;13.434;2022-11-02T09:56:49;13.10;99.90
13589;DHT22;6865;52.552;13.434;2022-11-02T09:59:22;13.10;99.90
13589;DHT22;6865;52.552;13.434;2022-11-02T10:01:58;13.10;99.90
13589;DHT22;6865;52.552;13.434;2022-11-02T10:04:44;13.20;99.90
13589;DHT22;6865;52.552;13.434;2022-11-02T10:10:40;13.50;99.90
13589;DHT22;6865;52.552;13.434;2022-11-02T10:13:38;13.60;99.90
13589;DHT22;6865;52.552;13.434;2022-11-02T10:16:30;13.60;99.90
13589;DHT22;6865;52.552;13.434;2022-11-02T10:19:02;13.70;99.90
13589;DHT22;6865;52.552;13.434;2022-11-02T10:21:33;13.80;99.90
13589;DHT22;6865;52.552;13.434;2022-11-02T10:24:22;13.90;99.90
13589;DHT22;6865;52.552;13.434;2022-11-02T10:26:55;14.00;99.90
13589;DHT22;6865;52.552;13.434;2022-11-02T10:32:17;14.10;99.90
13589;DHT22;6865;52.552;13.434;2022-11-02T10:34:45;14.10;99.90
13589;DHT22;6865;52.552;13.434;2022-11-02T10:37:43;14.20;99.90
13589;DHT22;6865;52.552;13.434;2022-11-02T10:40:25;14.10;99.90
13589;DHT22;6865;52.552;13.434;2022-11-02T10:43:25;14.30;99.90
13589;DHT22;6865;52.552;13.434;2022-11-02T10:49:40;14.30;99.90
13589;DHT22;6865;52.552;13.434;2022-11-02T10:52:13;14.30;99.90
13589;DHT22;6865;52.552;13.434;2022-11-02T10:54:41;14.50;99.90
13589;DHT22;6865;52.552;13.434;2022-11-02T10:57:12;14.50;99.90
13589;DHT22;6865;52.552;13.434;2022-11-02T10:59:39;14.60;99.90
13589;DHT22;6865;52.552;13.434;2022-11-02T11:02:13;14.60;99.90
13589;DHT22;6865;52.552;13.434;2022-11-02T11:04:41;14.60;99.90
13589;DHT22;6865;52.552;13.434;2022-11-02T11:07:25;14.70;99.90
13589;DHT22;6865;52.552;13.434;2022-11-02T11:09:53;14.80;99.90
13589;DHT22;6865;52.552;13.434;2022-11-02T11:12:31;15.00;99.90
13589;DHT22;6865;52.552;13.434;2022-11-02T11:15:01;15.00;99.90
13589;DHT22;6865;52.552;13.434;2022-11-02T11:17:48;15.00;99.90
13589;DHT22;6865;52.552;13.434;2022-11-02T11:20:37;15.00;99.90
13589;DHT22;6865;52.552;13.434;2022-11-02T11:25:41;15.00;99.90
13589;DHT22;6865;52.552;13.434;2022-11-02T11:28:28;15.10;99.90
13589;DHT22;6865;52.552;13.434;2022-11-02T11:31:12;15.10;99.90
13589;DHT22;6865;52.552;13.434;2022-11-02T11:33:49;14.90;99.90
13589;DHT22;6865;52.552;13.434;2022-11-02T11:36:27;14.80;99.90
13589;DHT22;6865;52.552;13.434;2022-11-02T11:38:59;14.90;99.90
13589;DHT22;6865;52.552;13.434;2022-11-02T11:41:27;14.90;99.90
13589;DHT22;6865;52.552;13.434;2022-11-02T11:43:54;14.90;99.90
13589;DHT22;6865;52.552;13.434;2022-11-02T11:46:21;14.90;99.90
13589;DHT22;6865;52.552;13.434;2022-11-02T11:48:53;14.90;99.90
13589;DHT22;6865;52.552;13.434;2022-11-02T11:51:38;14.90;99.90
13589;DHT22;6865;52.552;13.434;2022-11-02T11:54:26;14.90;99.90
13589;DHT22;6865;52.552;13.434;2022-11-02T11:57:23;14.90;99.90
13589;DHT22;6865;52.552;13.434;2022-11-02T11:59:51;14.90;99.90
13589;DHT22;6865;52.552;13.434;2022-11-02T12:02:32;15.00;99.90
13589;DHT22;6865;52.552;13.434;2022-11-02T12:05:16;14.90;99.90
13589;DHT22;6865;52.552;13.434;2022-11-02T12:08:00;14.90;99.90
13589;DHT22;6865;52.552;13.434;2022-11-02T12:10:46;14.90;99.90
13589;DHT22;6865;52.552;13.434;2022-11-02T12:13:49;14.90;99.90
13589;DHT22;6865;52.552;13.434;2022-11-02T12:20:03;14.90;99.90
13589;DHT22;6865;52.552;13.434;2022-11-02T12:22:44;14.80;99.90
13589;DHT22;6865;52.552;13.434;2022-11-02T12:25:51;14.90;99.90
13589;DHT22;6865;52.552;13.434;2022-11-02T12:28:42;15.00;99.90
13589;DHT22;6865;52.552;13.434;2022-11-02T12:31:37;14.90;99.90
13589;DHT22;6865;52.552;13.434;2022-11-02T12:34:27;15.00;99.90
13589;DHT22;6865;52.552;13.434;2022-11-02T12:37:11;15.10;99.90
13589;DHT22;6865;52.552;13.434;2022-11-02T12:40:24;15.00;99.90
13589;DHT22;6865;52.552;13.434;2022-11-02T12:46:04;14.80;99.90
13589;DHT22;6865;52.552;13.434;2022-11-02T12:49:12;14.90;99.90
13589;DHT22;6865;52.552;13.434;2022-11-02T12:54:40;15.00;99.90
13589;DHT22;6865;52.552;13.434;2022-11-02T12:57:15;15.00;99.90
13589;DHT22;6865;52.552;13.434;2022-11-02T12:59:43;15.20;99.50
13589;DHT22;6865;52.552;13.434;2022-11-02T13:05:19;15.20;96.10
13589;DHT22;6865;52.552;13.434;2022-11-02T13:08:18;15.20;95.00
13589;DHT22;6865;52.552;13.434;2022-11-02T13:10:52;15.10;94.20
13589;DHT22;6865;52.552;13.434;2022-11-02T13:13:34;15.10;93.70
13589;DHT22;6865;52.552;13.434;2022-11-02T13:16:03;15.10;93.80
13589;DHT22;6865;52.552;13.434;2022-11-02T13:18:52;15.10;93.60
13589;DHT22;6865;52.552;13.434;2022-11-02T13:21:32;15.10;93.80
13589;DHT22;6865;52.552;13.434;2022-11-02T13:24:03;15.00;92.90
13589;DHT22;6865;52.552;13.434;2022-11-02T13:26:34;15.00;92.90
13589;DHT22;6865;52.552;13.434;2022-11-02T13:29:39;15.10;92.70
13589;DHT22;6865;52.552;13.434;2022-11-02T13:34:46;15.20;92.50
13589;DHT22;6865;52.552;13.434;2022-11-02T13:37:40;15.10;92.50
13589;DHT22;6865;52.552;13.434;2022-11-02T13:40:32;15.10;92.70
13589;DHT22;6865;52.552;13.434;2022-11-02T13:46:37;14.80;92.90
13589;DHT22;6865;52.552;13.434;2022-11-02T13:49:18;14.70;93.50
13589;DHT22;6865;52.552;13.434;2022-11-02T13:51:59;14.60;93.70
13589;DHT22;6865;52.552;13.434;2022-11-02T13:54:33;14.50;94.10
13589;DHT22;6865;52.552;13.434;2022-11-02T13:57:01;14.50;94.50
13589;DHT22;6865;52.552;13.434;2022-11-02T13:59:30;14.50;94.40
13589;DHT22;6865;52.552;13.434;2022-11-02T14:02:00;14.60;94.70
13589;DHT22;6865;52.552;13.434;2022-11-02T14:04:39;14.60;94.70
13589;DHT22;6865;52.552;13.434;2022-11-02T14:07:18;14.70;94.90
13589;DHT22;6865;52.552;13.434;2022-11-02T14:09:46;14.70;95.10
13589;DHT22;6865;52.552;13.434;2022-11-02T14:25:48;14.50;95.70
13589;DHT22;6865;52.552;13.434;2022-11-02T14:39:14;14.30;97.10
13589;DHT22;6865;52.552;13.434;2022-11-02T14:42:01;14.20;97.00
13589;DHT22;6865;52.552;13.434;2022-11-02T14:44:56;14.20;97.10
13589;DHT22;6865;52.552;13.434;2022-11-02T14:47:27;14.20;96.70
13589;DHT22;6865;52.552;13.434;2022-11-02T14:50:01;14.10;97.10
13589;DHT22;6865;52.552;13.434;2022-11-02T14:52:32;14.10;96.70
13589;DHT22;6865;52.552;13.434;2022-11-02T14:57:37;14.00;96.40
13589;DHT22;6865;52.552;13.434;2022-11-02T15:00:30;14.00;95.90
13589;DHT22;6865;52.552;13.434;2022-11-02T15:02:57;14.00;95.80
13589;DHT22;6865;52.552;13.434;2022-11-02T15:05:37;14.00;95.90
13589;DHT22;6865;52.552;13.434;2022-11-02T15:10:41;13.90;96.00
13589;DHT22;6865;52.552;13.434;2022-11-02T15:24:06;13.60;95.60
13589;DHT22;6865;52.552;13.434;2022-11-02T15:29:42;13.60;95.30
13589;DHT22;6865;52.552;13.434;2022-11-02T15:32:15;13.60;95.10
13589;DHT22;6865;52.552;13.434;2022-11-02T15:34:49;13.50;95.30
13589;DHT22;6865;52.552;13.434;2022-11-02T15:37:25;13.50;95.30
13589;DHT22;6865;52.552;13.434;2022-11-02T15:40:02;13.40;95.30
13589;DHT22;6865;52.552;13.434;2022-11-02T15:42:47;13.40;95.20
13589;DHT22;6865;52.552;13.434;2022-11-02T15:45:30;13.30;95.50
13589;DHT22;6865;52.552;13.434;2022-11-02T15:51:29;13.30;95.60
13589;DHT22;6865;52.552;13.434;2022-11-02T15:54:12;13.20;95.70
13589;DHT22;6865;52.552;13.434;2022-11-02T15:59:38;13.20;95.90
13589;DHT22;6865;52.552;13.434;2022-11-02T16:02:24;13.10;96.00
13589;DHT22;6865;52.552;13.434;2022-11-02T16:04:58;13.10;96.20
13589;DHT22;6865;52.552;13.434;2022-11-02T16:07:26;13.10;96.40
13589;DHT22;6865;52.552;13.434;2022-11-02T16:12:55;13.00;96.50
13589;DHT22;6865;52.552;13.434;2022-11-02T16:15:22;13.00;96.70
13589;DHT22;6865;52.552;13.434;2022-11-02T16:17:49;12.90;97.00
13589;DHT22;6865;52.552;13.434;2022-11-02T16:20:21;12.80;97.20
13589;DHT22;6865;52.552;13.434;2022-11-02T16:23:00;12.80;97.40
13589;DHT22;6865;52.552;13.434;2022-11-02T16:25:35;12.80;97.70
13589;DHT22;6865;52.552;13.434;2022-11-02T16:28:24;12.70;97.70
13589;DHT22;6865;52.552;13.434;2022-11-02T16:31:06;12.70;97.80
13589;DHT22;6865;52.552;13.434;2022-11-02T16:33:54;12.70;97.90
13589;DHT22;6865;52.552;13.434;2022-11-02T16:36:34;12.60;98.10
13589;DHT22;6865;52.552;13.434;2022-11-02T16:41:49;12.40;98.50
13589;DHT22;6865;52.552;13.434;2022-11-02T16:44:23;12.40;98.60
13589;DHT22;6865;52.552;13.434;2022-11-02T16:52:33;12.40;98.80
13589;DHT22;6865;52.552;13.434;2022-11-02T16:55:00;12.30;98.90
13589;DHT22;6865;52.552;13.434;2022-11-02T16:57:29;12.30;99.00
13589;DHT22;6865;52.552;13.434;2022-11-02T17:00:05;12.30;99.10
13589;DHT22;6865;52.552;13.434;2022-11-02T17:02:38;12.30;99.00
13589;DHT22;6865;52.552;13.434;2022-11-02T17:05:26;12.10;99.20
13589;DHT22;6865;52.552;13.434;2022-11-02T17:08:02;12.20;99.20
13589;DHT22;6865;52.552;13.434;2022-11-02T17:10:32;12.10;99.20
13589;DHT22;6865;52.552;13.434;2022-11-02T17:13:00;12.10;99.50
13589;DHT22;6865;52.552;13.434;2022-11-02T17:15:30;12.10;99.50
13589;DHT22;6865;52.552;13.434;2022-11-02T17:20:38;12.00;99.80
13589;DHT22;6865;52.552;13.434;2022-11-02T17:25:45;12.00;99.90
13589;DHT22;6865;52.552;13.434;2022-11-02T17:28:41;13.40;99.90
13589;DHT22;6865;52.552;13.434;2022-11-02T17:31:16;11.90;99.90
13589;DHT22;6865;52.552;13.434;2022-11-02T17:33:44;11.90;99.90
13589;DHT22;6865;52.552;13.434;2022-11-02T17:36:12;11.80;99.90
13589;DHT22;6865;52.552;13.434;2022-11-02T17:38:39;11.70;99.90
13589;DHT22;6865;52.552;13.434;2022-11-02T17:41:08;11.70;99.90
13589;DHT22;6865;52.552;13.434;2022-11-02T17:43:54;11.70;99.90
13589;DHT22;6865;52.552;13.434;2022-11-02T17:46:21;11.60;99.90
13589;DHT22;6865;52.552;13.434;2022-11-02T17:48:48;11.60;99.90
13589;DHT22;6865;52.552;13.434;2022-11-02T17:51:15;11.60;99.90
13589;DHT22;6865;52.552;13.434;2022-11-02T17:53:43;11.60;99.90
13589;DHT22;6865;52.552;13.434;2022-11-02T17:56:10;11.60;99.90
13589;DHT22;6865;52.552;13.434;2022-11-02T17:58:36;11.60;99.90